Weather at Sky Lakes Medical Center Heliport

Public forecast

Using degrees Fahrenheit for public forecast. Weather courtesy of forecast.io.

Closest aviation weather report (METAR) to Sky Lakes Medical Center Heliport

Closest report is Crater Lake-Klamath Regional Airport, 6.3 nm (11.7 km) SSE. Retrieved 2021/06/19 19:53 UTC (23 minutes ago):

KLMT 191953Z VRB03KT 10SM CLR 30/06 A3001 RMK AO2 SLP112 T03000061

Closest aviation forecast (TAF) to Sky Lakes Medical Center Heliport

Closest forecast is Crater Lake-Klamath Regional Airport, 6.3 nm (11.7 km) SSE. Retrieved 2021/06/19 18:22 UTC (2 hours ago):

TAF KLMT 191720Z 1918/2018 VRB03KT P6SM SKC FM192300 31012G18KT P6SM SKC FM200500 34005KT P6SM SKC